Time;durP1;ratioP1;P1;durP2;ratioP2;P2;SDS_P1;SDS_P2;PMS_P1;PMS_P2;Temp;Humidity;BMP_temperature;BMP_pressure;BME280_temperature;BME280_humidity;BME280_pressure;Samples;Min_cycle;Max_cycle;Signal;HPM_P1;HPM_P2
2022/03/30 00:00:18;;;;;;;13.38;6.00;;;;;;;;;;4974165;28;20546;-79
2022/03/30 00:02:44;;;;;;;18.42;6.63;;;;;;;;;;4958596;28;20121;-80
2022/03/30 00:05:09;;;;;;;13.43;6.60;;;;;;;;;;4977166;28;20070;-79
2022/03/30 00:07:34;;;;;;;13.40;6.18;;;;;;;;;;4977551;28;20113;-80
2022/03/30 00:09:59;;;;;;;15.98;6.15;;;;;;;;;;4976033;28;20027;-79
2022/03/30 00:12:24;;;;;;;13.57;6.28;;;;;;;;;;4973902;28;20073;-80
2022/03/30 00:14:50;;;;;;;13.63;6.57;;;;;;;;;;4974486;28;20042;-79
2022/03/30 00:17:16;;;;;;;18.35;6.85;;;;;;;;;;4974932;28;20030;-80
2022/03/30 00:19:41;;;;;;;12.00;6.53;;;;;;;;;;4974609;28;20050;-80
2022/03/30 00:22:06;;;;;;;12.35;6.30;;;;;;;;;;4974761;28;20027;-80
2022/03/30 00:24:31;;;;;;;15.05;6.90;;;;;;;;;;4975388;28;20511;-80
2022/03/30 00:26:57;;;;;;;12.38;6.32;;;;;;;;;;4974750;28;20041;-80
2022/03/30 00:29:22;;;;;;;11.05;5.43;;;;;;;;;;4975496;28;20026;-80
2022/03/30 00:31:47;;;;;;;12.10;6.30;;;;;;;;;;4974630;28;20086;-80
2022/03/30 00:34:13;;;;;;;11.13;5.90;;;;;;;;;;4973107;28;20043;-80
2022/03/30 00:36:38;;;;;;;11.52;6.43;;;;;;;;;;4974746;28;20066;-80
2022/03/30 00:39:03;;;;;;;13.15;6.18;;;;;;;;;;4957632;28;20667;-80
2022/03/30 00:41:28;;;;;;;13.07;6.10;;;;;;;;;;4974882;28;20065;-80
2022/03/30 00:43:54;;;;;;;12.27;6.63;;;;;;;;;;4974384;28;20027;-80
2022/03/30 00:46:19;;;;;;;13.45;6.40;;;;;;;;;;4974062;28;20435;-80
2022/03/30 00:48:44;;;;;;;10.93;5.65;;;;;;;;;;4973228;28;20049;-80
2022/03/30 00:51:09;;;;;;;12.15;6.03;;;;;;;;;;4974363;28;20046;-80
2022/03/30 00:53:35;;;;;;;13.18;6.05;;;;;;;;;;4973922;28;20047;-80
2022/03/30 00:56:00;;;;;;;11.27;5.95;;;;;;;;;;4957004;28;20038;-80
2022/03/30 00:58:25;;;;;;;18.77;7.50;;;;;;;;;;4972878;28;20518;-80
2022/03/30 01:00:50;;;;;;;11.52;6.13;;;;;;;;;;4974691;28;20387;-80
2022/03/30 01:03:16;;;;;;;11.52;6.05;;;;;;;;;;4973339;28;20040;-80
2022/03/30 01:05:42;;;;;;;11.93;6.28;;;;;;;;;;4973670;28;20450;-80
2022/03/30 01:08:07;;;;;;;11.35;6.72;;;;;;;;;;4972896;28;20426;-80
2022/03/30 01:10:32;;;;;;;11.27;6.05;;;;;;;;;;4974159;28;20042;-80
2022/03/30 01:12:57;;;;;;;13.70;6.20;;;;;;;;;;4974273;28;20395;-80
2022/03/30 01:15:23;;;;;;;11.93;6.00;;;;;;;;;;4973537;28;20077;-80
2022/03/30 01:17:48;;;;;;;12.90;6.18;;;;;;;;;;4973123;28;20018;-80
2022/03/30 01:20:13;;;;;;;16.17;6.25;;;;;;;;;;4973799;28;20045;-80
2022/03/30 01:22:39;;;;;;;10.68;5.93;;;;;;;;;;4973882;28;20039;-80
2022/03/30 01:25:04;;;;;;;9.13;5.57;;;;;;;;;;4973619;28;20031;-80
2022/03/30 01:27:30;;;;;;;11.55;6.57;;;;;;;;;;4974174;28;20137;-80
2022/03/30 01:32:39;;;;;;;14.55;6.10;;;;;;;;;;4972490;28;20504;-80
2022/03/30 01:35:04;;;;;;;9.32;6.20;;;;;;;;;;4973333;28;20027;-79
2022/03/30 01:37:29;;;;;;;10.35;5.95;;;;;;;;;;4973048;28;20443;-80
2022/03/30 01:39:55;;;;;;;13.75;6.45;;;;;;;;;;4972545;28;20066;-79
2022/03/30 01:42:20;;;;;;;12.18;6.50;;;;;;;;;;4975159;28;20598;-81
2022/03/30 01:44:45;;;;;;;12.80;6.35;;;;;;;;;;4976293;28;20038;-80
2022/03/30 01:47:11;;;;;;;12.57;6.03;;;;;;;;;;4977881;28;20534;-80
2022/03/30 01:49:36;;;;;;;12.02;6.07;;;;;;;;;;4977679;28;20041;-81
2022/03/30 01:52:01;;;;;;;14.80;5.47;;;;;;;;;;4976197;28;20114;-79
2022/03/30 01:54:26;;;;;;;14.48;5.97;;;;;;;;;;4977841;28;20598;-79
2022/03/30 01:56:52;;;;;;;13.50;6.28;;;;;;;;;;4977714;28;20058;-79
2022/03/30 01:59:17;;;;;;;10.70;6.53;;;;;;;;;;4979052;28;20376;-79
2022/03/30 02:01:42;;;;;;;12.98;6.45;;;;;;;;;;4978455;28;20041;-80
2022/03/30 02:04:07;;;;;;;9.80;6.38;;;;;;;;;;4977385;28;20054;-80
2022/03/30 02:06:33;;;;;;;10.68;6.18;;;;;;;;;;4978325;28;20119;-80
2022/03/30 02:08:58;;;;;;;15.48;7.03;;;;;;;;;;4978723;28;20049;-80
2022/03/30 02:11:24;;;;;;;13.20;6.80;;;;;;;;;;4978298;28;20058;-79
2022/03/30 02:13:50;;;;;;;14.10;6.20;;;;;;;;;;4978419;28;20051;-80
2022/03/30 02:16:16;;;;;;;12.65;6.43;;;;;;;;;;4975464;28;20486;-79
2022/03/30 02:18:41;;;;;;;13.30;6.30;;;;;;;;;;4976623;28;20510;-79
2022/03/30 02:21:06;;;;;;;11.95;6.65;;;;;;;;;;4977500;28;20035;-80
2022/03/30 02:23:32;;;;;;;11.32;5.75;;;;;;;;;;4976709;28;20434;-80
2022/03/30 02:25:57;;;;;;;11.77;6.25;;;;;;;;;;4959440;28;20078;-79
2022/03/30 02:28:22;;;;;;;10.38;6.20;;;;;;;;;;4976963;28;20141;-79
2022/03/30 02:30:48;;;;;;;12.05;7.57;;;;;;;;;;4976591;28;20035;-79
2022/03/30 02:33:13;;;;;;;13.55;6.28;;;;;;;;;;4976385;28;20035;-80
2022/03/30 02:35:38;;;;;;;12.50;6.18;;;;;;;;;;4977318;28;20475;-80
2022/03/30 02:38:04;;;;;;;12.07;6.72;;;;;;;;;;4975945;28;20030;-79
2022/03/30 02:40:29;;;;;;;12.13;6.68;;;;;;;;;;4976282;28;20045;-80
2022/03/30 02:42:54;;;;;;;12.88;6.55;;;;;;;;;;4975895;28;20042;-79
2022/03/30 02:45:19;;;;;;;16.38;6.40;;;;;;;;;;4958680;28;20031;-80
2022/03/30 02:50:48;;;;;;;11.07;6.47;;;;;;;;;;4973745;28;20093;-80
2022/03/30 02:53:13;;;;;;;12.70;6.00;;;;;;;;;;4973578;28;20038;-79
2022/03/30 02:55:39;;;;;;;14.32;6.53;;;;;;;;;;4974591;28;20050;-80
2022/03/30 02:58:04;;;;;;;10.73;6.43;;;;;;;;;;4974775;28;20057;-80
2022/03/30 03:00:29;;;;;;;14.50;6.43;;;;;;;;;;4976458;28;20081;-80
2022/03/30 03:02:55;;;;;;;10.30;6.13;;;;;;;;;;4975919;28;20182;-79
2022/03/30 03:05:20;;;;;;;16.85;6.80;;;;;;;;;;4974951;28;20034;-80
2022/03/30 03:07:45;;;;;;;14.77;6.70;;;;;;;;;;4958605;28;20045;-80
2022/03/30 03:10:10;;;;;;;13.70;6.20;;;;;;;;;;4975848;28;20399;-80
2022/03/30 03:12:36;;;;;;;17.92;6.60;;;;;;;;;;4975713;28;20038;-80
2022/03/30 03:15:01;;;;;;;16.25;7.00;;;;;;;;;;4974806;28;20046;-79
2022/03/30 03:17:26;;;;;;;13.75;6.88;;;;;;;;;;4976201;28;20089;-79
2022/03/30 03:19:51;;;;;;;12.68;6.22;;;;;;;;;;4974149;28;20038;-80
2022/03/30 03:22:17;;;;;;;10.77;6.35;;;;;;;;;;4975508;28;20035;-80
2022/03/30 03:24:42;;;;;;;13.23;6.95;;;;;;;;;;4975892;28;20041;-80
2022/03/30 03:27:07;;;;;;;12.75;6.90;;;;;;;;;;4975491;28;20034;-79
2022/03/30 03:29:33;;;;;;;14.57;6.90;;;;;;;;;;4976033;28;20043;-79
2022/03/30 03:31:58;;;;;;;13.38;7.20;;;;;;;;;;4975718;28;20034;-80
2022/03/30 03:34:23;;;;;;;15.32;6.85;;;;;;;;;;4974403;28;20121;-80
2022/03/30 03:36:48;;;;;;;14.48;6.60;;;;;;;;;;4975605;28;20117;-80
2022/03/30 03:39:14;;;;;;;11.88;6.05;;;;;;;;;;4975272;28;20035;-80
2022/03/30 03:41:39;;;;;;;21.35;8.18;;;;;;;;;;4975162;28;20038;-79
2022/03/30 03:44:04;;;;;;;14.77;6.75;;;;;;;;;;4975296;28;20038;-79
2022/03/30 03:46:29;;;;;;;13.38;6.82;;;;;;;;;;4975528;28;20497;-80
2022/03/30 03:48:55;;;;;;;9.20;6.20;;;;;;;;;;4975594;28;20046;-80
2022/03/30 03:51:21;;;;;;;14.63;6.80;;;;;;;;;;4973815;28;20034;-79
2022/03/30 03:53:46;;;;;;;16.88;6.88;;;;;;;;;;4975378;28;20035;-80
2022/03/30 03:56:11;;;;;;;14.88;7.05;;;;;;;;;;4973506;28;20380;-80
2022/03/30 03:58:36;;;;;;;16.38;6.30;;;;;;;;;;4973644;28;20042;-80
2022/03/30 04:01:02;;;;;;;14.70;6.20;;;;;;;;;;4974086;28;20034;-79
2022/03/30 04:03:27;;;;;;;14.05;6.35;;;;;;;;;;4974151;28;20038;-79
2022/03/30 04:05:52;;;;;;;15.60;6.63;;;;;;;;;;4974449;28;20668;-80
2022/03/30 04:08:20;;;;;;;14.70;6.18;;;;;;;;;;4973541;28;20034;-79
2022/03/30 04:10:46;;;;;;;19.75;6.53;;;;;;;;;;4973927;28;20030;-80
2022/03/30 04:13:12;;;;;;;16.73;6.47;;;;;;;;;;4973238;28;20027;-80
2022/03/30 04:15:37;;;;;;;17.73;6.47;;;;;;;;;;4974244;28;20042;-80
2022/03/30 04:18:04;;;;;;;15.73;6.50;;;;;;;;;;4974570;28;20560;-80
2022/03/30 04:20:29;;;;;;;18.83;6.40;;;;;;;;;;4973887;28;20513;-80
2022/03/30 04:22:54;;;;;;;18.73;6.45;;;;;;;;;;4973685;28;20085;-79
2022/03/30 04:25:20;;;;;;;17.17;7.00;;;;;;;;;;4972848;28;20415;-79
2022/03/30 04:27:45;;;;;;;21.60;7.32;;;;;;;;;;4974285;28;20685;-79
2022/03/30 04:30:10;;;;;;;18.85;6.47;;;;;;;;;;4973027;28;20376;-79
2022/03/30 04:32:36;;;;;;;14.48;6.35;;;;;;;;;;4974761;28;20125;-80
2022/03/30 04:35:01;;;;;;;20.27;6.68;;;;;;;;;;4973956;28;20031;-80
2022/03/30 04:37:26;;;;;;;17.33;6.55;;;;;;;;;;4975730;28;20515;-80
2022/03/30 04:39:51;;;;;;;17.85;6.55;;;;;;;;;;4974950;28;20034;-80
2022/03/30 04:42:20;;;;;;;12.50;6.57;;;;;;;;;;4974062;28;20082;-80
2022/03/30 04:44:45;;;;;;;15.05;6.47;;;;;;;;;;4973282;28;20042;-80
2022/03/30 04:47:10;;;;;;;14.30;7.00;;;;;;;;;;4974220;28;20034;-79
2022/03/30 04:49:36;;;;;;;18.30;7.05;;;;;;;;;;4977514;28;20038;-80
2022/03/30 04:52:01;;;;;;;15.15;6.70;;;;;;;;;;4975627;28;20030;-80
2022/03/30 04:54:26;;;;;;;17.38;7.47;;;;;;;;;;4975128;28;20126;-79
2022/03/30 04:56:52;;;;;;;15.13;6.57;;;;;;;;;;4975061;28;20084;-80
2022/03/30 04:59:17;;;;;;;14.82;7.40;;;;;;;;;;4973463;28;20038;-79
2022/03/30 05:01:42;;;;;;;20.92;7.63;;;;;;;;;;4973135;28;20134;-80
2022/03/30 05:04:08;;;;;;;16.70;6.47;;;;;;;;;;4974460;28;20038;-79
2022/03/30 05:06:33;;;;;;;17.65;7.72;;;;;;;;;;4974087;28;20043;-79
2022/03/30 05:08:58;;;;;;;29.33;11.00;;;;;;;;;;4973938;28;20055;-80
2022/03/30 05:11:23;;;;;;;35.35;15.65;;;;;;;;;;4956230;28;20035;-79
2022/03/30 05:13:49;;;;;;;67.55;38.95;;;;;;;;;;4973723;28;20165;-80
2022/03/30 05:16:15;;;;;;;31.95;17.40;;;;;;;;;;4971984;28;20494;-79
2022/03/30 05:18:41;;;;;;;22.55;7.38;;;;;;;;;;4973362;28;20041;-79
2022/03/30 05:21:06;;;;;;;18.98;6.50;;;;;;;;;;4972232;28;20039;-79
2022/03/30 05:23:31;;;;;;;22.90;6.70;;;;;;;;;;4973317;28;20108;-79
2022/03/30 05:25:57;;;;;;;20.63;6.88;;;;;;;;;;4973613;28;20033;-79
2022/03/30 05:28:22;;;;;;;15.75;6.25;;;;;;;;;;4974560;28;20463;-79
2022/03/30 05:30:47;;;;;;;18.10;6.40;;;;;;;;;;4973717;28;20035;-79
2022/03/30 05:33:13;;;;;;;30.40;6.30;;;;;;;;;;4979285;28;20530;-80
2022/03/30 05:35:38;;;;;;;21.77;7.53;;;;;;;;;;4973045;28;20504;-79
2022/03/30 05:38:03;;;;;;;19.60;6.78;;;;;;;;;;4973340;28;20117;-80
2022/03/30 05:40:29;;;;;;;21.65;6.68;;;;;;;;;;4973547;28;20038;-79
2022/03/30 05:42:54;;;;;;;21.00;6.97;;;;;;;;;;4973868;28;20038;-79
2022/03/30 05:45:20;;;;;;;23.52;7.22;;;;;;;;;;4973111;28;20065;-80
2022/03/30 05:47:45;;;;;;;16.20;6.57;;;;;;;;;;4971824;28;20046;-80
2022/03/30 05:50:10;;;;;;;18.00;6.70;;;;;;;;;;4973304;28;20639;-80
2022/03/30 05:52:35;;;;;;;16.08;6.97;;;;;;;;;;4973079;28;20042;-80
2022/03/30 05:55:01;;;;;;;17.02;6.30;;;;;;;;;;4996428;23;20061;-87
2022/03/30 05:57:27;;;;;;;17.42;6.85;;;;;;;;;;4973368;28;20054;-86
2022/03/30 05:59:52;;;;;;;22.83;7.43;;;;;;;;;;4982811;28;20047;-87
2022/03/30 06:02:17;;;;;;;25.42;7.15;;;;;;;;;;4958110;28;20054;-85
2022/03/30 06:04:43;;;;;;;16.17;6.75;;;;;;;;;;4974545;28;20027;-85
2022/03/30 06:07:08;;;;;;;23.75;7.03;;;;;;;;;;4977024;28;20038;-85
2022/03/30 06:09:33;;;;;;;15.35;6.55;;;;;;;;;;4974620;28;20082;-86
2022/03/30 06:11:59;;;;;;;19.20;6.80;;;;;;;;;;4975922;28;20035;-84
2022/03/30 06:14:24;;;;;;;16.55;6.50;;;;;;;;;;4976346;28;20031;-83
2022/03/30 06:16:50;;;;;;;18.42;6.65;;;;;;;;;;4977717;28;20134;-84
2022/03/30 06:19:15;;;;;;;18.73;7.00;;;;;;;;;;4976662;28;20114;-84
2022/03/30 06:21:42;;;;;;;17.63;6.53;;;;;;;;;;4976777;28;20074;-83
2022/03/30 06:24:07;;;;;;;21.27;6.78;;;;;;;;;;4957773;28;20559;-84
2022/03/30 06:26:33;;;;;;;17.80;6.65;;;;;;;;;;4958335;28;20061;-83
2022/03/30 06:28:58;;;;;;;19.35;7.75;;;;;;;;;;4976850;28;20031;-83
2022/03/30 06:31:23;;;;;;;17.25;7.45;;;;;;;;;;4977653;28;20031;-84
2022/03/30 06:33:48;;;;;;;18.52;7.30;;;;;;;;;;4976595;28;20403;-84
2022/03/30 06:36:14;;;;;;;23.40;7.18;;;;;;;;;;4976941;28;20027;-83
2022/03/30 06:38:39;;;;;;;23.58;7.18;;;;;;;;;;4977475;28;20476;-85
2022/03/30 06:41:05;;;;;;;16.13;6.65;;;;;;;;;;4977443;28;20534;-83
2022/03/30 06:43:30;;;;;;;20.10;6.60;;;;;;;;;;4978291;28;20038;-85
2022/03/30 06:45:55;;;;;;;21.20;6.80;;;;;;;;;;4976974;28;20054;-83
2022/03/30 06:48:21;;;;;;;16.88;6.40;;;;;;;;;;4977242;28;20042;-87
2022/03/30 06:50:46;;;;;;;21.92;6.65;;;;;;;;;;4980464;28;20022;-85
2022/03/30 06:53:11;;;;;;;21.40;7.15;;;;;;;;;;4988642;28;20035;-83
2022/03/30 06:55:38;;;;;;;13.23;5.70;;;;;;;;;;4993397;28;20053;-86
2022/03/30 06:58:04;;;;;;;19.17;6.70;;;;;;;;;;4986519;28;20077;-87
2022/03/30 07:00:29;;;;;;;17.40;7.32;;;;;;;;;;4995402;28;20031;-88
2022/03/30 07:02:54;;;;;;;32.90;7.82;;;;;;;;;;4997794;28;20041;-84
2022/03/30 07:05:20;;;;;;;19.50;7.40;;;;;;;;;;4996531;28;20396;-87
2022/03/30 07:10:31;;;;;;;16.52;7.15;;;;;;;;;;4978318;28;20027;-85
2022/03/30 07:12:56;;;;;;;13.63;7.18;;;;;;;;;;4978272;28;20042;-85
2022/03/30 07:15:22;;;;;;;18.10;7.03;;;;;;;;;;4977332;28;20039;-86
2022/03/30 07:17:47;;;;;;;19.88;7.57;;;;;;;;;;4977359;28;20027;-86
2022/03/30 07:20:12;;;;;;;17.58;7.43;;;;;;;;;;4976149;28;20038;-86
2022/03/30 07:22:38;;;;;;;19.38;7.60;;;;;;;;;;4977741;28;20039;-86
2022/03/30 07:25:03;;;;;;;19.88;8.75;;;;;;;;;;4986102;28;20053;-85
2022/03/30 07:27:30;;;;;;;18.98;7.50;;;;;;;;;;4995829;28;20520;-84
2022/03/30 07:29:55;;;;;;;21.08;8.13;;;;;;;;;;4996188;28;20031;-86
2022/03/30 07:32:20;;;;;;;18.42;8.73;;;;;;;;;;4979911;28;20407;-86
2022/03/30 07:34:49;;;;;;;26.88;8.85;;;;;;;;;;4996144;28;20454;-87
2022/03/30 07:37:14;;;;;;;19.88;8.10;;;;;;;;;;4996435;28;20027;-86
2022/03/30 07:39:39;;;;;;;20.90;8.20;;;;;;;;;;4995098;28;20034;-87
2022/03/30 07:42:04;;;;;;;25.45;8.15;;;;;;;;;;4996269;28;20090;-86
2022/03/30 07:44:31;;;;;;;17.23;7.93;;;;;;;;;;4995304;28;20035;-84
2022/03/30 07:46:58;;;;;;;19.35;6.93;;;;;;;;;;4996295;28;20508;-86
2022/03/30 07:49:24;;;;;;;15.98;7.30;;;;;;;;;;5001485;28;20372;-87
2022/03/30 07:51:49;;;;;;;20.35;7.80;;;;;;;;;;4982116;28;20514;-87
2022/03/30 07:54:14;;;;;;;14.95;7.05;;;;;;;;;;4995354;28;20038;-86
2022/03/30 07:56:40;;;;;;;19.63;7.05;;;;;;;;;;4997239;28;20116;-86
2022/03/30 07:59:05;;;;;;;14.38;6.97;;;;;;;;;;4988443;28;20031;-86
2022/03/30 08:01:30;;;;;;;16.55;7.75;;;;;;;;;;4975976;28;20038;-86
2022/03/30 08:03:56;;;;;;;18.15;7.28;;;;;;;;;;4976125;28;20035;-88
2022/03/30 08:06:22;;;;;;;13.73;6.88;;;;;;;;;;4984492;28;20035;-86
2022/03/30 08:08:47;;;;;;;16.70;7.00;;;;;;;;;;4977875;28;20065;-86
2022/03/30 08:11:13;;;;;;;19.63;7.10;;;;;;;;;;4981440;28;20042;-85
2022/03/30 08:13:38;;;;;;;20.50;6.68;;;;;;;;;;4987131;28;20081;-88
2022/03/30 08:16:04;;;;;;;19.05;7.22;;;;;;;;;;4995798;28;20046;-85
2022/03/30 08:18:29;;;;;;;21.85;7.57;;;;;;;;;;4991384;28;20031;-86
2022/03/30 08:23:38;;;;;;;11.77;6.85;;;;;;;;;;4976055;28;20039;-86
2022/03/30 08:26:03;;;;;;;19.65;7.50;;;;;;;;;;4975682;28;20059;-85
2022/03/30 08:28:29;;;;;;;18.83;6.95;;;;;;;;;;4977951;28;20097;-84
2022/03/30 08:30:54;;;;;;;17.00;7.22;;;;;;;;;;4977057;28;20109;-84
2022/03/30 08:33:23;;;;;;;14.48;6.88;;;;;;;;;;4976609;28;20051;-84
2022/03/30 08:35:48;;;;;;;18.50;7.13;;;;;;;;;;4976403;28;20038;-83
2022/03/30 08:38:14;;;;;;;18.15;7.35;;;;;;;;;;4975391;28;20034;-85
2022/03/30 08:40:39;;;;;;;16.77;7.07;;;;;;;;;;4976633;28;20033;-86
2022/03/30 08:43:04;;;;;;;15.55;7.35;;;;;;;;;;4976326;28;20027;-84
2022/03/30 08:45:29;;;;;;;16.08;6.88;;;;;;;;;;4979504;28;20538;-86
2022/03/30 08:47:55;;;;;;;14.60;7.25;;;;;;;;;;4978682;28;20427;-84
2022/03/30 08:50:20;;;;;;;16.88;7.57;;;;;;;;;;4978424;28;20041;-86
2022/03/30 08:52:47;;;;;;;19.67;6.93;;;;;;;;;;4978670;28;20081;-85
2022/03/30 08:55:13;;;;;;;17.92;7.32;;;;;;;;;;4978164;28;20058;-86
2022/03/30 08:57:38;;;;;;;18.40;7.30;;;;;;;;;;4977557;28;20132;-85
2022/03/30 09:00:04;;;;;;;21.38;7.13;;;;;;;;;;4978942;28;20031;-84
2022/03/30 09:02:29;;;;;;;13.30;6.53;;;;;;;;;;4978280;28;20038;-86
2022/03/30 09:04:54;;;;;;;21.73;7.07;;;;;;;;;;4978624;28;20346;-86
2022/03/30 09:07:20;;;;;;;19.77;7.20;;;;;;;;;;4987038;28;20039;-85
2022/03/30 09:09:45;;;;;;;18.90;6.93;;;;;;;;;;4979565;28;20137;-85
2022/03/30 09:12:10;;;;;;;21.15;6.75;;;;;;;;;;4976166;28;20042;-86
2022/03/30 09:14:37;;;;;;;23.38;6.95;;;;;;;;;;4978530;28;20047;-86
2022/03/30 09:17:02;;;;;;;27.00;7.55;;;;;;;;;;4988744;28;20049;-87
2022/03/30 09:19:28;;;;;;;22.27;6.85;;;;;;;;;;4975557;28;20038;-85
2022/03/30 09:21:53;;;;;;;21.67;7.30;;;;;;;;;;4977821;28;20022;-85
2022/03/30 09:24:18;;;;;;;24.45;7.78;;;;;;;;;;4960939;28;20058;-85
2022/03/30 09:26:43;;;;;;;22.80;7.55;;;;;;;;;;4978253;28;20031;-86
2022/03/30 09:29:09;;;;;;;29.02;7.82;;;;;;;;;;4977242;28;20034;-84
2022/03/30 09:31:35;;;;;;;18.45;7.90;;;;;;;;;;4978740;28;20026;-84
2022/03/30 09:34:00;;;;;;;21.75;7.68;;;;;;;;;;4976469;28;20050;-84
2022/03/30 09:36:26;;;;;;;16.60;7.43;;;;;;;;;;4977330;28;20518;-84
2022/03/30 09:38:51;;;;;;;15.18;7.68;;;;;;;;;;4976474;28;20026;-84
2022/03/30 09:41:16;;;;;;;18.77;8.82;;;;;;;;;;4981784;28;20030;-85
2022/03/30 09:43:42;;;;;;;21.85;8.57;;;;;;;;;;4980602;28;20046;-85
2022/03/30 09:46:08;;;;;;;22.80;9.57;;;;;;;;;;4978210;28;20042;-86
2022/03/30 09:48:35;;;;;;;30.08;8.95;;;;;;;;;;4977281;28;20090;-86
2022/03/30 09:51:02;;;;;;;24.17;9.18;;;;;;;;;;4978495;28;20050;-85
2022/03/30 09:53:27;;;;;;;28.98;8.95;;;;;;;;;;4979622;28;20061;-84
2022/03/30 09:55:53;;;;;;;24.50;9.07;;;;;;;;;;4980544;28;20058;-86
2022/03/30 09:58:18;;;;;;;19.92;9.05;;;;;;;;;;4976305;28;20058;-86
2022/03/30 10:00:48;;;;;;;30.58;9.10;;;;;;;;;;4977342;28;20050;-86
2022/03/30 10:03:13;;;;;;;22.65;8.20;;;;;;;;;;4977808;28;20039;-85
2022/03/30 10:05:38;;;;;;;29.67;7.35;;;;;;;;;;4981775;28;20034;-85
2022/03/30 10:08:04;;;;;;;28.75;7.15;;;;;;;;;;4983276;28;20030;-85
2022/03/30 10:10:29;;;;;;;20.27;6.88;;;;;;;;;;4990759;28;20520;-83
2022/03/30 10:12:54;;;;;;;26.05;6.53;;;;;;;;;;4996814;28;20042;-86
2022/03/30 10:15:20;;;;;;;34.53;6.88;;;;;;;;;;4996730;28;20034;-86
2022/03/30 10:17:45;;;;;;;24.60;6.70;;;;;;;;;;4998014;28;20030;-86
2022/03/30 10:20:10;;;;;;;24.55;7.03;;;;;;;;;;4997880;28;20117;-85
2022/03/30 10:22:36;;;;;;;27.83;7.40;;;;;;;;;;4995500;28;20049;-85
2022/03/30 10:25:05;;;;;;;31.48;7.22;;;;;;;;;;5007366;28;20034;-85
2022/03/30 10:27:30;;;;;;;31.10;7.60;;;;;;;;;;5000270;28;20445;-85
2022/03/30 10:29:56;;;;;;;33.10;7.55;;;;;;;;;;4998671;28;20046;-85
2022/03/30 10:32:24;;;;;;;23.30;7.25;;;;;;;;;;4997499;28;20038;-83
2022/03/30 10:34:50;;;;;;;26.58;7.18;;;;;;;;;;4981862;28;20034;-84
2022/03/30 10:37:15;;;;;;;20.23;6.70;;;;;;;;;;4999150;28;20184;-85
2022/03/30 10:39:41;;;;;;;25.52;7.40;;;;;;;;;;4998972;28;20046;-84
2022/03/30 10:42:07;;;;;;;27.25;6.88;;;;;;;;;;4999760;28;20042;-86
2022/03/30 10:44:32;;;;;;;26.85;6.75;;;;;;;;;;5002474;28;20069;-87
2022/03/30 10:46:57;;;;;;;27.95;7.30;;;;;;;;;;5001518;28;20482;-84
2022/03/30 10:49:22;;;;;;;33.88;7.55;;;;;;;;;;4999099;28;20042;-85
2022/03/30 10:51:48;;;;;;;30.27;7.70;;;;;;;;;;4997548;28;20030;-85
2022/03/30 10:54:13;;;;;;;42.90;9.52;;;;;;;;;;4999931;28;20042;-86
2022/03/30 10:56:38;;;;;;;34.63;8.10;;;;;;;;;;5000097;28;20039;-87
2022/03/30 10:59:03;;;;;;;34.70;8.27;;;;;;;;;;4999341;28;20441;-86
2022/03/30 11:01:29;;;;;;;27.42;7.07;;;;;;;;;;4999872;28;20406;-85
2022/03/30 11:03:54;;;;;;;22.65;6.97;;;;;;;;;;5001937;28;20026;-88
2022/03/30 11:06:19;;;;;;;33.85;7.93;;;;;;;;;;5000458;28;20034;-87
2022/03/30 11:08:45;;;;;;;25.98;7.57;;;;;;;;;;5001245;28;20042;-85
2022/03/30 11:11:10;;;;;;;29.10;7.00;;;;;;;;;;4999083;28;20134;-87
2022/03/30 11:13:35;;;;;;;34.97;7.75;;;;;;;;;;5001335;28;20043;-87
2022/03/30 11:16:01;;;;;;;26.42;7.65;;;;;;;;;;5001212;28;20070;-86
2022/03/30 11:18:26;;;;;;;29.98;7.53;;;;;;;;;;5000885;28;20105;-86
2022/03/30 11:20:51;;;;;;;28.80;7.57;;;;;;;;;;5001920;28;20390;-85
2022/03/30 11:23:16;;;;;;;24.95;7.22;;;;;;;;;;4998478;28;20061;-85
2022/03/30 11:25:42;;;;;;;23.80;7.55;;;;;;;;;;4999461;28;20106;-85
2022/03/30 11:28:08;;;;;;;25.70;7.18;;;;;;;;;;5000953;28;20042;-85
2022/03/30 11:30:33;;;;;;;30.52;7.50;;;;;;;;;;5006259;28;20034;-87
2022/03/30 11:32:59;;;;;;;28.80;7.32;;;;;;;;;;5007069;28;20026;-87
2022/03/30 11:35:25;;;;;;;43.88;8.07;;;;;;;;;;5000998;28;20044;-87
2022/03/30 11:37:51;;;;;;;20.65;7.43;;;;;;;;;;5002707;28;20462;-87
2022/03/30 11:40:17;;;;;;;32.45;7.13;;;;;;;;;;5001096;28;20034;-87
2022/03/30 11:42:42;;;;;;;38.78;7.63;;;;;;;;;;4984459;28;20053;-85
2022/03/30 11:45:14;;;;;;;30.20;7.60;;;;;;;;;;4999583;28;20038;-87
2022/03/30 11:47:39;;;;;;;31.88;7.75;;;;;;;;;;5000691;28;20094;-86
2022/03/30 11:50:04;;;;;;;32.13;7.15;;;;;;;;;;5002585;28;20053;-87
2022/03/30 11:52:30;;;;;;;27.70;7.93;;;;;;;;;;5000606;28;20061;-87
2022/03/30 11:54:55;;;;;;;30.90;7.25;;;;;;;;;;5002928;23;20054;-80
2022/03/30 11:57:20;;;;;;;35.10;7.18;;;;;;;;;;4974944;28;20034;-80
2022/03/30 11:59:45;;;;;;;25.70;7.22;;;;;;;;;;4976157;28;20038;-80
2022/03/30 12:02:11;;;;;;;25.42;6.95;;;;;;;;;;4976435;28;20650;-79
2022/03/30 12:04:37;;;;;;;31.60;7.85;;;;;;;;;;4976129;28;20093;-79
2022/03/30 12:07:02;;;;;;;39.65;7.90;;;;;;;;;;4976465;28;20196;-79
2022/03/30 12:09:27;;;;;;;29.75;7.90;;;;;;;;;;4976791;28;20043;-80
2022/03/30 12:11:52;;;;;;;27.73;7.43;;;;;;;;;;4976010;28;20054;-79
2022/03/30 12:14:18;;;;;;;25.90;8.23;;;;;;;;;;4976120;28;20034;-80
2022/03/30 12:16:43;;;;;;;29.45;7.72;;;;;;;;;;4976529;28;20043;-79
2022/03/30 12:19:09;;;;;;;27.02;8.30;;;;;;;;;;4975972;28;20030;-80
2022/03/30 12:21:34;;;;;;;32.50;7.50;;;;;;;;;;4975916;28;20038;-79
2022/03/30 12:24:01;;;;;;;34.97;7.50;;;;;;;;;;4974490;28;20451;-79
2022/03/30 12:26:26;;;;;;;27.17;7.53;;;;;;;;;;4975175;28;20035;-79
2022/03/30 12:28:52;;;;;;;35.70;8.05;;;;;;;;;;4975636;28;20033;-79
2022/03/30 12:31:17;;;;;;;31.27;7.75;;;;;;;;;;4975421;28;20031;-79
2022/03/30 12:33:42;;;;;;;28.88;7.10;;;;;;;;;;4975301;28;20392;-79
2022/03/30 12:36:07;;;;;;;34.60;7.55;;;;;;;;;;4976456;28;20410;-79
2022/03/30 12:38:33;;;;;;;28.05;7.95;;;;;;;;;;4975303;28;20038;-79
2022/03/30 12:40:58;;;;;;;33.67;7.80;;;;;;;;;;4975710;28;20106;-79
2022/03/30 12:43:24;;;;;;;29.00;7.85;;;;;;;;;;4976414;28;20022;-79
2022/03/30 12:45:54;;;;;;;28.58;8.00;;;;;;;;;;4976166;28;20491;-79
2022/03/30 12:48:19;;;;;;;27.75;7.97;;;;;;;;;;4975513;28;20035;-79
2022/03/30 12:50:44;;;;;;;35.95;8.00;;;;;;;;;;4976512;28;20085;-79
2022/03/30 12:53:16;;;;;;;33.55;8.02;;;;;;;;;;4976998;28;20042;-79
2022/03/30 12:55:41;;;;;;;27.95;7.85;;;;;;;;;;4976100;28;20133;-79
2022/03/30 12:58:18;;;;;;;27.08;8.05;;;;;;;;;;4976194;28;20435;-79
2022/03/30 13:00:44;;;;;;;27.02;7.60;;;;;;;;;;4976530;28;20046;-79
2022/03/30 13:03:09;;;;;;;29.98;7.95;;;;;;;;;;4976400;28;20039;-79
2022/03/30 13:05:36;;;;;;;37.22;8.02;;;;;;;;;;4976494;28;20419;-79
2022/03/30 13:08:01;;;;;;;27.80;7.70;;;;;;;;;;4977109;28;20086;-79
2022/03/30 13:10:26;;;;;;;32.45;8.43;;;;;;;;;;4978016;28;20038;-81
2022/03/30 13:12:59;;;;;;;23.33;7.35;;;;;;;;;;4977036;28;20035;-78
2022/03/30 13:15:24;;;;;;;27.20;7.85;;;;;;;;;;4975860;28;20035;-79
2022/03/30 13:17:49;;;;;;;30.73;8.30;;;;;;;;;;4980195;28;20058;-78
2022/03/30 13:20:15;;;;;;;36.95;8.30;;;;;;;;;;4993383;28;20038;-79
2022/03/30 13:22:40;;;;;;;23.95;7.85;;;;;;;;;;4977984;28;20031;-78
2022/03/30 13:25:05;;;;;;;30.27;7.82;;;;;;;;;;4978853;28;20037;-79
2022/03/30 13:27:31;;;;;;;34.47;8.75;;;;;;;;;;4994241;28;20535;-82
2022/03/30 13:29:58;;;;;;;32.65;8.35;;;;;;;;;;4996293;28;20038;-78
2022/03/30 13:32:23;;;;;;;29.00;7.80;;;;;;;;;;4993780;28;20037;-79
2022/03/30 13:34:49;;;;;;;28.83;7.88;;;;;;;;;;4981183;28;20414;-81
2022/03/30 13:37:14;;;;;;;38.05;8.65;;;;;;;;;;4972836;28;20054;-79
2022/03/30 13:39:41;;;;;;;35.95;8.10;;;;;;;;;;4959383;28;20089;-80
2022/03/30 13:42:06;;;;;;;32.88;7.78;;;;;;;;;;4956548;28;20071;-80
2022/03/30 13:44:31;;;;;;;32.90;8.15;;;;;;;;;;4956570;28;20046;-80
2022/03/30 13:46:57;;;;;;;33.15;7.68;;;;;;;;;;4955370;28;20098;-80
2022/03/30 13:49:41;;;;;;;28.85;8.10;;;;;;;;;;4956612;28;20066;-80
2022/03/30 13:52:06;;;;;;;31.20;8.13;;;;;;;;;;4956708;28;20035;-80
2022/03/30 13:54:32;;;;;;;45.67;7.68;;;;;;;;;;4956471;28;20035;-80
2022/03/30 13:56:57;;;;;;;26.90;7.82;;;;;;;;;;4956305;28;20492;-80
2022/03/30 13:59:22;;;;;;;34.70;8.45;;;;;;;;;;4956364;28;20044;-80
2022/03/30 14:01:49;;;;;;;34.33;8.32;;;;;;;;;;4955542;29;20062;-80
2022/03/30 14:04:14;;;;;;;36.50;8.32;;;;;;;;;;4956257;28;20496;-80
2022/03/30 14:06:40;;;;;;;32.53;8.35;;;;;;;;;;4955586;29;20042;-80
2022/03/30 14:09:05;;;;;;;32.78;8.02;;;;;;;;;;4956229;28;20039;-80
2022/03/30 14:11:30;;;;;;;41.88;8.48;;;;;;;;;;4956251;28;20035;-80
2022/03/30 14:13:55;;;;;;;32.15;8.52;;;;;;;;;;4970904;28;20063;-80
2022/03/30 14:16:21;;;;;;;34.22;8.85;;;;;;;;;;4954902;28;20031;-80
2022/03/30 14:18:46;;;;;;;32.45;9.00;;;;;;;;;;4971141;28;20090;-80
2022/03/30 14:21:11;;;;;;;35.88;8.82;;;;;;;;;;4956326;28;20550;-80
2022/03/30 14:23:36;;;;;;;33.78;9.15;;;;;;;;;;4955001;28;20090;-80
2022/03/30 14:26:02;;;;;;;34.03;8.15;;;;;;;;;;4955898;28;20042;-80
2022/03/30 14:28:27;;;;;;;27.23;7.68;;;;;;;;;;4956449;28;20043;-80
2022/03/30 14:30:53;;;;;;;32.08;8.75;;;;;;;;;;4956207;28;20058;-79